createdAt,value
2019-05-01T00:01:54.324Z,8.20
2019-05-01T00:04:42.161Z,8.20
2019-05-01T00:07:20.749Z,8.10
2019-05-01T00:09:48.953Z,8.10
2019-05-01T00:12:17.156Z,8.20
2019-05-01T00:14:45.364Z,8.10
2019-05-01T00:17:13.577Z,7.90
2019-05-01T00:19:41.808Z,7.80
2019-05-01T00:22:10.038Z,7.80
2019-05-01T00:24:38.231Z,7.90
2019-05-01T00:27:06.440Z,8.00
2019-05-01T00:29:34.635Z,7.90
2019-05-01T00:32:02.840Z,7.90
2019-05-01T00:34:31.052Z,7.80
2019-05-01T00:36:59.256Z,7.70
2019-05-01T00:39:27.453Z,7.60
2019-05-01T00:41:55.656Z,7.60
2019-05-01T00:44:23.858Z,7.60
2019-05-01T00:46:52.090Z,7.50
2019-05-01T00:49:20.296Z,7.40
2019-05-01T00:51:48.491Z,7.50
2019-05-01T00:54:16.705Z,7.50
2019-05-01T00:56:46.544Z,7.40
2019-05-01T00:59:32.441Z,7.40
2019-05-01T01:02:05.274Z,7.30
2019-05-01T01:04:33.472Z,7.40
2019-05-01T01:07:01.689Z,7.40
2019-05-01T01:09:29.889Z,7.20
2019-05-01T01:11:58.130Z,7.20
2019-05-01T01:14:26.327Z,7.20
2019-05-01T01:16:54.569Z,7.20
2019-05-01T01:19:22.802Z,7.20
2019-05-01T01:21:51.030Z,7.10
2019-05-01T01:24:19.262Z,7.10
2019-05-01T01:26:47.501Z,7.00
2019-05-01T01:29:15.692Z,7.00
2019-05-01T01:31:43.892Z,7.00
2019-05-01T01:34:12.096Z,7.00
2019-05-01T01:36:40.301Z,6.90
2019-05-01T01:39:08.508Z,6.90
2019-05-01T01:41:36.716Z,7.00
2019-05-01T01:44:06.556Z,7.00
2019-05-01T01:46:36.396Z,6.90
2019-05-01T01:49:04.607Z,6.90
2019-05-01T01:51:32.809Z,6.90
2019-05-01T01:54:01.021Z,6.80
2019-05-01T01:56:29.216Z,6.90
2019-05-01T01:58:57.428Z,6.90
2019-05-01T02:01:33.204Z,6.90
2019-05-01T02:04:17.947Z,6.80
2019-05-01T02:06:46.712Z,6.70
2019-05-01T02:09:14.942Z,6.70
2019-05-01T02:11:43.172Z,6.70
2019-05-01T02:14:11.376Z,6.70
2019-05-01T02:16:39.572Z,6.70
2019-05-01T02:19:07.786Z,6.70
2019-05-01T02:21:36.018Z,6.60
2019-05-01T02:24:04.222Z,6.50
2019-05-01T02:26:34.066Z,6.50
2019-05-01T02:29:09.642Z,6.50
2019-05-01T02:31:45.374Z,6.40
2019-05-01T02:34:13.585Z,6.40
2019-05-01T02:36:41.777Z,6.40
2019-05-01T02:39:10.082Z,6.20
2019-05-01T02:41:41.723Z,6.20
2019-05-01T02:44:15.045Z,6.20
2019-05-01T02:46:43.254Z,6.20
2019-05-01T02:49:22.990Z,6.20
2019-05-01T02:51:51.226Z,6.20
2019-05-01T02:54:19.424Z,6.20
2019-05-01T02:56:51.939Z,6.30
2019-05-01T02:59:20.137Z,6.20
2019-05-01T03:01:48.421Z,6.00
2019-05-01T03:04:16.652Z,6.00
2019-05-01T03:06:45.055Z,6.00
2019-05-01T03:09:13.248Z,5.90
2019-05-01T03:11:41.490Z,5.80
2019-05-01T03:14:13.033Z,5.70
2019-05-01T03:16:41.252Z,5.70
2019-05-01T03:19:20.105Z,5.70
2019-05-01T03:21:52.913Z,5.70
2019-05-01T03:24:22.748Z,5.70
2019-05-01T03:26:50.995Z,5.80
2019-05-01T03:29:19.800Z,5.80
2019-05-01T03:32:14.611Z,5.70
2019-05-01T03:34:17.980Z,5.70
2019-05-01T03:36:46.179Z,5.70
2019-05-01T03:39:14.378Z,5.70
2019-05-01T03:41:42.581Z,5.70
2019-05-01T03:44:10.781Z,5.70
2019-05-01T03:46:39.019Z,5.70
2019-05-01T03:49:07.218Z,5.60
2019-05-01T03:51:35.427Z,5.50
2019-05-01T03:54:03.621Z,5.50
2019-05-01T03:56:31.824Z,5.40
2019-05-01T03:59:00.018Z,5.50
2019-05-01T04:01:32.724Z,5.50
2019-05-01T04:04:02.566Z,5.40
2019-05-01T04:06:30.769Z,5.40
2019-05-01T04:08:58.959Z,5.50
2019-05-01T04:11:27.206Z,5.40
2019-05-01T04:13:55.403Z,5.40
2019-05-01T04:16:23.610Z,5.40
2019-05-01T04:18:51.820Z,5.40
2019-05-01T04:21:21.725Z,5.30
2019-05-01T04:23:49.951Z,5.40
2019-05-01T04:26:18.160Z,5.40
2019-05-01T04:28:48.062Z,5.40
2019-05-01T04:31:17.914Z,5.30
2019-05-01T04:33:47.737Z,5.30
2019-05-01T04:36:17.574Z,5.30
2019-05-01T04:38:45.769Z,5.30
2019-05-01T04:41:13.999Z,5.50
2019-05-01T04:43:42.235Z,5.50
2019-05-01T04:46:10.461Z,5.60
2019-05-01T04:48:38.702Z,5.50
2019-05-01T04:51:06.896Z,5.50
2019-05-01T04:53:35.104Z,5.40
2019-05-01T04:56:03.409Z,5.40
2019-05-01T04:58:31.604Z,5.50
2019-05-01T05:00:59.838Z,5.60
2019-05-01T05:03:28.344Z,5.70
2019-05-01T05:05:56.536Z,5.70
2019-05-01T05:08:24.858Z,5.70
2019-05-01T05:10:54.688Z,5.90
2019-05-01T05:13:42.359Z,5.90
2019-05-01T05:16:21.085Z,6.10
2019-05-01T05:18:49.332Z,6.20
2019-05-01T05:21:17.552Z,6.30
2019-05-01T05:23:45.806Z,6.20
2019-05-01T05:26:14.008Z,6.30
2019-05-01T05:28:42.220Z,6.40
2019-05-01T05:31:10.542Z,6.60
2019-05-01T05:33:38.739Z,6.70
2019-05-01T05:36:07.014Z,6.80
2019-05-01T05:38:42.790Z,6.90
2019-05-01T05:41:10.984Z,6.90
2019-05-01T05:43:39.191Z,7.00
2019-05-01T05:46:07.395Z,7.10
2019-05-01T05:48:35.629Z,7.20
2019-05-01T05:51:05.431Z,7.30
2019-05-01T05:53:44.337Z,7.40
2019-05-01T05:56:18.740Z,7.50
2019-05-01T05:58:48.577Z,7.60
2019-05-01T06:01:21.398Z,7.60
2019-05-01T06:04:03.362Z,7.70
2019-05-01T06:06:45.015Z,7.80
2019-05-01T06:09:15.571Z,7.90
2019-05-01T06:11:48.996Z,8.00
2019-05-01T06:14:34.911Z,8.20
2019-05-01T06:17:04.744Z,8.30
2019-05-01T06:19:34.619Z,8.40
2019-05-01T06:22:11.634Z,8.60
2019-05-01T06:24:44.577Z,8.70
2019-05-01T06:27:13.722Z,8.90
2019-05-01T06:29:42.799Z,9.10
2019-05-01T06:32:11.176Z,9.30
2019-05-01T06:34:39.414Z,9.40
2019-05-01T06:37:07.678Z,9.60
2019-05-01T06:39:35.879Z,9.70
2019-05-01T06:42:09.824Z,9.90
2019-05-01T06:44:39.109Z,10.00
2019-05-01T06:47:09.122Z,10.20
2019-05-01T06:49:38.990Z,10.40
2019-05-01T06:52:07.960Z,10.60
2019-05-01T06:54:36.174Z,10.80
2019-05-01T06:57:04.446Z,10.90
2019-05-01T06:59:33.404Z,11.00
2019-05-01T07:02:01.669Z,11.20
2019-05-01T07:04:32.444Z,11.40
2019-05-01T07:07:01.974Z,11.60
2019-05-01T07:09:30.332Z,11.80
2019-05-01T07:11:58.537Z,12.00
2019-05-01T07:14:26.745Z,12.30
2019-05-01T07:16:54.955Z,12.50
2019-05-01T07:19:24.799Z,12.80
2019-05-01T07:21:53.003Z,13.00
2019-05-01T07:24:24.103Z,13.00
2019-05-01T07:26:51.148Z,13.30
2019-05-01T07:29:23.923Z,13.40
2019-05-01T07:31:52.139Z,13.50
2019-05-01T07:34:21.732Z,13.50
2019-05-01T07:36:51.767Z,13.60
2019-05-01T07:39:20.028Z,13.60
2019-05-01T07:41:48.220Z,14.10
2019-05-01T07:44:30.017Z,14.30
2019-05-01T07:47:04.404Z,14.70
2019-05-01T07:49:53.108Z,14.90
2019-05-01T07:52:22.195Z,15.10
2019-05-01T07:54:50.408Z,15.40
2019-05-01T07:57:18.629Z,15.60
2019-05-01T07:59:46.903Z,15.80
2019-05-01T08:02:15.194Z,16.20
2019-05-01T08:04:43.431Z,16.40
2019-05-01T08:07:11.644Z,16.70
2019-05-01T08:09:39.860Z,17.10
2019-05-01T08:12:08.081Z,17.40
2019-05-01T08:14:36.286Z,17.60
2019-05-01T08:17:04.530Z,17.90
2019-05-01T08:19:49.165Z,18.20
2019-05-01T08:22:19.066Z,18.50
2019-05-01T08:24:47.269Z,18.80
2019-05-01T08:27:20.321Z,19.10
2019-05-01T08:29:52.041Z,19.20
2019-05-01T08:32:27.906Z,19.40
2019-05-01T08:35:00.559Z,19.40
2019-05-01T08:37:27.710Z,19.50
2019-05-01T08:39:55.958Z,19.90
2019-05-01T08:42:24.233Z,20.30
2019-05-01T08:44:54.111Z,20.40
2019-05-01T08:47:25.934Z,20.00
2019-05-01T08:50:04.292Z,19.70
2019-05-01T08:52:32.501Z,20.00
2019-05-01T08:55:04.353Z,20.40
2019-05-01T08:57:34.465Z,20.90
2019-05-01T09:00:01.673Z,20.80
2019-05-01T09:02:30.128Z,20.40
2019-05-01T09:05:02.441Z,20.60
2019-05-01T09:07:28.271Z,20.80
2019-05-01T09:09:56.464Z,21.10
2019-05-01T09:12:24.668Z,21.10
2019-05-01T09:14:52.876Z,21.30
2019-05-01T09:17:21.149Z,21.40
2019-05-01T09:19:49.424Z,21.80
2019-05-01T09:22:17.644Z,22.10
2019-05-01T09:24:46.802Z,22.30
2019-05-01T09:27:27.545Z,22.50
2019-05-01T09:29:54.252Z,22.50
2019-05-01T09:32:22.474Z,22.60
2019-05-01T09:34:50.720Z,22.00
2019-05-01T09:37:18.980Z,22.20
2019-05-01T09:39:47.573Z,22.10
2019-05-01T09:42:22.746Z,21.80
2019-05-01T09:44:45.914Z,21.80
2019-05-01T09:47:14.184Z,22.20
2019-05-01T09:49:42.386Z,22.30
2019-05-01T09:52:18.907Z,23.10
2019-05-01T09:54:49.487Z,23.70
2019-05-01T09:57:17.795Z,23.50
2019-05-01T09:59:46.030Z,23.90
2019-05-01T10:02:14.505Z,23.90
2019-05-01T10:04:42.721Z,23.30
2019-05-01T10:07:10.911Z,23.60
2019-05-01T10:09:39.121Z,23.50
2019-05-01T10:12:11.725Z,24.20
2019-05-01T10:14:37.577Z,24.50
2019-05-01T10:17:06.060Z,24.90
2019-05-01T10:19:34.272Z,25.00
2019-05-01T10:22:03.718Z,24.50
2019-05-01T10:24:37.301Z,24.20
2019-05-01T10:27:03.652Z,24.50
2019-05-01T10:29:48.137Z,24.80
2019-05-01T10:32:21.777Z,24.90
2019-05-01T10:34:58.230Z,25.80
2019-05-01T10:37:28.290Z,26.20
2019-05-01T10:39:56.440Z,25.70
2019-05-01T10:42:24.649Z,25.30
2019-05-01T10:44:52.840Z,25.60
2019-05-01T10:47:21.089Z,25.80
2019-05-01T10:49:49.297Z,26.00
2019-05-01T10:52:17.496Z,26.10
2019-05-01T10:54:46.612Z,26.40
2019-05-01T10:57:14.893Z,26.40
2019-05-01T10:59:43.091Z,26.70
2019-05-01T11:02:12.945Z,27.10
2019-05-01T11:04:41.189Z,27.60
2019-05-01T11:07:09.414Z,26.50
2019-05-01T11:09:37.629Z,25.90
2019-05-01T11:12:05.873Z,25.80
2019-05-01T11:14:34.084Z,26.30
2019-05-01T11:17:02.276Z,26.80
2019-05-01T11:19:30.484Z,26.20
2019-05-01T11:21:58.693Z,26.00
2019-05-01T11:24:26.897Z,26.00
2019-05-01T11:26:56.739Z,26.30
2019-05-01T11:29:25.062Z,26.60
2019-05-01T11:31:57.679Z,26.90
2019-05-01T11:34:39.367Z,26.30
2019-05-01T11:37:21.036Z,26.50
2019-05-01T11:40:03.070Z,26.80
2019-05-01T11:42:31.322Z,26.60
2019-05-01T11:44:59.533Z,26.80
2019-05-01T11:47:27.800Z,27.00
2019-05-01T11:49:56.016Z,26.80
2019-05-01T11:52:24.221Z,26.50
2019-05-01T11:54:52.424Z,26.70
2019-05-01T11:57:20.763Z,27.20
2019-05-01T11:59:48.985Z,27.80
2019-05-01T12:02:17.222Z,27.90
2019-05-01T12:04:45.458Z,27.80
2019-05-01T12:07:13.682Z,28.10
2019-05-01T12:09:41.884Z,28.10
2019-05-01T12:12:11.724Z,28.10
2019-05-01T12:14:39.941Z,28.00
2019-05-01T12:17:09.772Z,27.80
2019-05-01T12:19:38.006Z,28.50
2019-05-01T12:22:06.210Z,28.60
2019-05-01T12:24:34.412Z,28.00
2019-05-01T12:27:02.628Z,28.60
2019-05-01T12:29:30.823Z,28.70
2019-05-01T12:31:59.049Z,28.80
2019-05-01T12:34:27.261Z,28.70
2019-05-01T12:37:13.231Z,28.50
2019-05-01T12:39:41.441Z,28.90
2019-05-01T12:42:09.682Z,28.70
2019-05-01T12:44:37.876Z,27.90
2019-05-01T12:47:09.381Z,28.70
2019-05-01T12:49:37.592Z,28.60
2019-05-01T12:52:10.726Z,28.30
2019-05-01T12:54:40.782Z,28.00
2019-05-01T12:57:09.103Z,27.90
2019-05-01T12:59:37.297Z,27.90
2019-05-01T13:02:05.512Z,27.50
2019-05-01T13:04:33.745Z,27.30
2019-05-01T13:07:01.965Z,27.20
2019-05-01T13:09:30.184Z,27.60
2019-05-01T13:11:58.396Z,27.50
2019-05-01T13:14:26.607Z,27.90
2019-05-01T13:16:54.849Z,27.60
2019-05-01T13:19:23.085Z,27.40
2019-05-01T13:21:51.289Z,26.90
2019-05-01T13:24:19.505Z,26.40
2019-05-01T13:26:49.397Z,26.50
2019-05-01T13:29:22.226Z,26.90
2019-05-01T13:32:08.041Z,27.30
2019-05-01T13:34:36.245Z,27.50
2019-05-01T13:37:04.452Z,26.60
2019-05-01T13:39:32.687Z,26.50
2019-05-01T13:42:00.902Z,26.80
2019-05-01T13:44:29.092Z,27.10
2019-05-01T13:46:57.301Z,27.10
2019-05-01T13:49:25.504Z,26.90
2019-05-01T13:51:53.712Z,26.60
2019-05-01T13:54:21.907Z,26.80
2019-05-01T13:56:50.121Z,26.40
2019-05-01T13:59:18.358Z,26.30
2019-05-01T14:01:46.603Z,26.20
2019-05-01T14:04:15.668Z,25.70
2019-05-01T14:06:43.877Z,25.60
2019-05-01T14:09:13.728Z,25.90
2019-05-01T14:11:41.974Z,25.50
2019-05-01T14:14:10.175Z,25.70
2019-05-01T14:16:38.415Z,25.70
2019-05-01T14:19:06.625Z,25.50
2019-05-01T14:21:37.656Z,25.40
2019-05-01T14:24:13.323Z,25.10
2019-05-01T14:26:41.537Z,24.90
2019-05-01T14:29:09.774Z,24.90
2019-05-01T14:31:37.972Z,24.70
2019-05-01T14:34:06.272Z,24.40
2019-05-01T14:36:34.501Z,24.30
2019-05-01T14:39:02.900Z,24.20
2019-05-01T14:41:31.092Z,24.20
2019-05-01T14:43:59.350Z,24.10
2019-05-01T14:46:27.611Z,24.00
2019-05-01T14:48:55.819Z,23.90
2019-05-01T14:51:24.033Z,23.70
2019-05-01T14:53:52.240Z,23.50
2019-05-01T14:56:20.451Z,23.60
2019-05-01T14:58:48.665Z,23.40
2019-05-01T15:01:16.868Z,23.20
2019-05-01T15:03:45.079Z,23.40
2019-05-01T15:06:13.268Z,23.00
2019-05-01T15:08:41.481Z,23.00
2019-05-01T15:11:09.710Z,22.90
2019-05-01T15:13:55.512Z,23.00
2019-05-01T15:16:28.264Z,23.00
2019-05-01T15:19:03.828Z,22.90
2019-05-01T15:21:32.036Z,22.90
2019-05-01T15:24:00.236Z,22.80
2019-05-01T15:26:28.443Z,22.80
2019-05-01T15:28:56.645Z,22.70
2019-05-01T15:31:24.840Z,22.60
2019-05-01T15:33:53.044Z,22.30
2019-05-01T15:36:21.255Z,22.00
2019-05-01T15:38:49.465Z,21.80
2019-05-01T15:41:35.457Z,21.80
2019-05-01T15:44:05.361Z,21.80
2019-05-01T15:46:35.228Z,21.70
2019-05-01T15:49:03.426Z,21.60
2019-05-01T15:51:31.642Z,21.30
2019-05-01T15:53:59.888Z,21.40
2019-05-01T15:56:28.104Z,21.40
2019-05-01T15:58:56.325Z,21.20
2019-05-01T16:01:24.521Z,21.10
2019-05-01T16:03:52.739Z,21.10
2019-05-01T16:06:21.101Z,21.00
2019-05-01T16:08:49.370Z,20.70
2019-05-01T16:11:19.226Z,20.80
2019-05-01T16:13:47.478Z,20.70
2019-05-01T16:16:15.671Z,20.60
2019-05-01T16:18:43.870Z,20.50
2019-05-01T16:21:12.081Z,20.40
2019-05-01T16:23:40.280Z,20.40
2019-05-01T16:26:09.810Z,20.40
2019-05-01T16:28:38.101Z,20.20
2019-05-01T16:31:06.398Z,20.00
2019-05-01T16:33:34.600Z,19.90
2019-05-01T16:36:02.846Z,19.80
2019-05-01T16:38:32.692Z,19.70
2019-05-01T16:41:05.594Z,19.60
2019-05-01T16:43:33.905Z,19.50
2019-05-01T16:46:02.188Z,19.50
2019-05-01T16:48:30.396Z,19.50
2019-05-01T16:50:58.646Z,19.40
2019-05-01T16:53:26.844Z,19.20
2019-05-01T16:55:55.052Z,19.10
2019-05-01T16:58:23.256Z,19.00
2019-05-01T17:00:59.477Z,19.00
2019-05-01T17:03:31.970Z,18.90
2019-05-01T17:06:17.976Z,18.90
2019-05-01T17:08:50.832Z,18.80
2019-05-01T17:11:20.675Z,18.70
2019-05-01T17:13:48.880Z,18.60
2019-05-01T17:16:17.094Z,18.60
2019-05-01T17:18:45.338Z,18.50
2019-05-01T17:21:13.659Z,18.50
2019-05-01T17:23:41.855Z,18.30
2019-05-01T17:26:10.057Z,18.20
2019-05-01T17:28:38.291Z,18.10
2019-05-01T17:31:06.522Z,18.10
2019-05-01T17:33:34.724Z,18.00
2019-05-01T17:36:02.928Z,18.00
2019-05-01T17:38:31.125Z,17.90
2019-05-01T17:40:59.366Z,17.70
2019-05-01T17:43:27.564Z,17.70
2019-05-01T17:45:55.768Z,17.60
2019-05-01T17:48:23.971Z,17.60
2019-05-01T17:50:55.147Z,17.50
2019-05-01T17:53:22.123Z,17.40
2019-05-01T17:55:50.373Z,17.40
2019-05-01T17:58:18.581Z,17.30
2019-05-01T18:00:54.389Z,17.30
2019-05-01T18:03:24.261Z,17.20
2019-05-01T18:06:08.964Z,17.20
2019-05-01T18:08:37.159Z,16.90
2019-05-01T18:11:09.329Z,16.80
2019-05-01T18:13:35.337Z,16.60
2019-05-01T18:16:03.530Z,16.50
2019-05-01T18:18:31.724Z,16.40
2019-05-01T18:21:00.030Z,16.20
2019-05-01T18:23:47.743Z,16.20
2019-05-01T18:26:23.111Z,16.30
2019-05-01T18:29:07.748Z,16.20
2019-05-01T18:31:36.000Z,16.10
2019-05-01T18:34:04.602Z,16.10
2019-05-01T18:36:34.533Z,16.10
2019-05-01T18:39:16.654Z,15.90
2019-05-01T18:42:00.474Z,15.80
2019-05-01T18:44:28.714Z,15.70
2019-05-01T18:46:56.936Z,15.50
2019-05-01T18:49:25.135Z,15.30
2019-05-01T18:51:53.373Z,15.20
2019-05-01T18:54:21.579Z,15.30
2019-05-01T18:56:49.784Z,15.30
2019-05-01T18:59:17.993Z,15.20
2019-05-01T19:01:48.576Z,15.10
2019-05-01T19:04:18.364Z,15.10
2019-05-01T19:06:46.091Z,15.00
2019-05-01T19:09:15.414Z,14.80
2019-05-01T19:11:43.745Z,14.70
2019-05-01T19:14:12.227Z,14.50
2019-05-01T19:16:45.156Z,14.50
2019-05-01T19:19:10.368Z,14.50
2019-05-01T19:21:41.795Z,14.40
2019-05-01T19:24:09.297Z,14.20
2019-05-01T19:26:38.299Z,14.10
2019-05-01T19:29:07.420Z,14.00
2019-05-01T19:31:35.625Z,13.70
2019-05-01T19:34:03.868Z,13.50
2019-05-01T19:36:32.108Z,13.50
2019-05-01T19:39:00.332Z,13.50
2019-05-01T19:41:28.522Z,13.50
2019-05-01T19:43:56.936Z,13.40
2019-05-01T19:46:25.140Z,13.40
2019-05-01T19:48:53.399Z,13.20
2019-05-01T19:51:24.178Z,13.20
2019-05-01T19:53:53.395Z,13.20
2019-05-01T19:56:22.745Z,13.10
2019-05-01T19:58:51.302Z,13.00
2019-05-01T20:01:19.508Z,12.80
2019-05-01T20:03:47.713Z,12.70
2019-05-01T20:06:15.975Z,12.60
2019-05-01T20:08:44.208Z,12.50
2019-05-01T20:11:12.408Z,12.40
2019-05-01T20:13:40.607Z,12.40
2019-05-01T20:16:09.828Z,12.30
2019-05-01T20:18:38.092Z,12.30
2019-05-01T20:21:06.393Z,12.10
2019-05-01T20:23:34.623Z,12.00
2019-05-01T20:26:02.824Z,11.90
2019-05-01T20:28:31.024Z,11.80
2019-05-01T20:30:59.253Z,11.80
2019-05-01T20:33:27.440Z,11.70
2019-05-01T20:35:55.656Z,11.60
2019-05-01T20:38:23.851Z,11.50
2019-05-01T20:40:52.056Z,11.30
2019-05-01T20:43:20.252Z,11.30
2019-05-01T20:45:49.489Z,11.20
2019-05-01T20:48:23.428Z,11.20
2019-05-01T20:50:48.387Z,11.10
2019-05-01T20:53:16.588Z,10.90
2019-05-01T20:55:46.463Z,10.90
2019-05-01T20:58:21.077Z,10.90
2019-05-01T21:00:53.282Z,10.90
2019-05-01T21:03:20.873Z,10.80
2019-05-01T21:06:02.892Z,10.60
2019-05-01T21:08:47.236Z,10.50
2019-05-01T21:11:17.081Z,10.50
2019-05-01T21:13:45.280Z,10.40
2019-05-01T21:16:13.485Z,10.20
2019-05-01T21:18:41.718Z,10.10
2019-05-01T21:21:09.952Z,10.00
2019-05-01T21:23:38.144Z,10.00
2019-05-01T21:26:06.381Z,9.90
2019-05-01T21:28:34.582Z,9.90
2019-05-01T21:31:03.850Z,9.80
2019-05-01T21:33:33.887Z,9.70
2019-05-01T21:36:04.933Z,9.70
2019-05-01T21:38:32.332Z,9.60
2019-05-01T21:41:02.534Z,9.50
2019-05-01T21:43:35.189Z,9.40
2019-05-01T21:46:00.385Z,9.30
2019-05-01T21:48:28.583Z,9.30
2019-05-01T21:50:58.045Z,9.30
2019-05-01T21:53:26.716Z,9.30
2019-05-01T21:55:54.911Z,9.20
2019-05-01T21:58:28.278Z,9.20
2019-05-01T22:00:55.210Z,9.10
2019-05-01T22:03:23.283Z,9.10
2019-05-01T22:05:51.510Z,9.10
2019-05-01T22:08:19.700Z,9.10
2019-05-01T22:10:52.060Z,9.10
2019-05-01T22:13:20.435Z,9.10
2019-05-01T22:15:49.443Z,9.00
2019-05-01T22:18:19.275Z,8.90
2019-05-01T22:20:57.684Z,9.00
2019-05-01T22:23:27.520Z,8.90
2019-05-01T22:25:57.372Z,8.80
2019-05-01T22:28:36.178Z,8.80
2019-05-01T22:31:21.798Z,8.70
2019-05-01T22:33:49.431Z,8.60
2019-05-01T22:36:17.641Z,8.50
2019-05-01T22:38:46.695Z,8.50
2019-05-01T22:41:14.921Z,8.40
2019-05-01T22:43:43.115Z,8.40
2019-05-01T22:46:13.006Z,8.40
2019-05-01T22:48:41.191Z,8.30
2019-05-01T22:51:13.983Z,8.30
2019-05-01T22:53:42.226Z,8.20
2019-05-01T22:56:10.458Z,8.20
2019-05-01T22:58:38.661Z,8.00
2019-05-01T23:01:07.320Z,8.10
2019-05-01T23:03:41.047Z,8.00
2019-05-01T23:06:07.892Z,7.90
2019-05-01T23:08:36.262Z,7.90
2019-05-01T23:11:04.447Z,7.80
2019-05-01T23:13:32.693Z,7.70
2019-05-01T23:16:01.053Z,7.70
2019-05-01T23:18:29.290Z,7.70
2019-05-01T23:20:57.517Z,7.70
2019-05-01T23:23:25.717Z,7.70
2019-05-01T23:25:53.917Z,7.70
2019-05-01T23:28:22.115Z,7.60
2019-05-01T23:30:50.393Z,7.60
2019-05-01T23:33:18.592Z,7.60
2019-05-01T23:35:46.827Z,7.50
2019-05-01T23:38:15.059Z,7.40
2019-05-01T23:40:46.091Z,7.30
2019-05-01T23:43:13.230Z,7.30
2019-05-01T23:45:41.425Z,7.30
2019-05-01T23:48:09.625Z,7.30
2019-05-01T23:50:37.856Z,7.30
2019-05-01T23:53:09.189Z,7.20
2019-05-01T23:55:35.959Z,7.20
2019-05-01T23:58:04.161Z,7.10
